Time,TemperatureF,DewpointF,PressureIn,WindDirection,WindDirectionDegrees,WindSpeedMPH,WindSpeedGustMPH,Humidity,HourlyPrecipIn,Conditions,Clouds,dailyrainin,SoftwareType,DateUTC
2013-07-14 00:00:00,70.0,70.0,30.33,SSW,194,0.0,0.0,100,0.00,,,0.00,VWS V14.01,2013-07-14 04:00:00,
2013-07-14 00:05:00,69.8,69.8,30.33,SSW,194,0.0,0.0,100,0.00,,,0.00,VWS V14.01,2013-07-14 04:05:00,
2013-07-14 00:10:00,69.6,69.6,30.33,SSW,194,0.0,0.0,100,0.00,,,0.00,VWS V14.01,2013-07-14 04:10:00,
2013-07-14 00:15:00,69.6,69.6,30.33,SSW,194,0.0,0.0,100,0.00,,,0.00,VWS V14.01,2013-07-14 04:15:00,
2013-07-14 00:20:00,69.6,69.6,30.33,SSW,194,0.0,0.0,100,0.00,,,0.00,VWS V14.01,2013-07-14 04:20:00,
2013-07-14 00:30:00,68.9,68.9,30.33,SSW,194,0.0,0.0,100,0.00,,,0.00,VWS V14.01,2013-07-14 04:30:00,
2013-07-14 00:40:00,68.9,68.9,30.33,SSW,194,3.1,4.0,100,0.00,,,0.00,VWS V14.01,2013-07-14 04:40:00,
2013-07-14 00:45:00,68.9,68.9,30.33,SSW,194,2.2,4.0,100,0.00,,,0.00,VWS V14.01,2013-07-14 04:45:00,
2013-07-14 00:55:00,68.9,68.9,30.33,SSW,194,3.1,4.0,100,0.00,,,0.00,VWS V14.01,2013-07-14 04:55:00,
2013-07-14 01:05:00,68.9,68.9,30.33,SSW,199,3.1,6.3,100,0.00,,,0.00,VWS V14.01,2013-07-14 05:05:00,
2013-07-14 01:15:00,72.3,72.3,30.33,SSW,199,3.6,9.2,100,0.00,,,0.00,VWS V14.01,2013-07-14 05:15:00,
2013-07-14 01:20:00,72.3,72.3,30.33,SSW,199,3.6,9.2,100,0.00,,,0.00,VWS V14.01,2013-07-14 05:20:00,
2013-07-14 01:30:00,73.2,73.2,30.33,South,181,5.8,10.5,100,0.00,,,0.00,VWS V14.01,2013-07-14 05:30:00,
2013-07-14 01:35:00,73.2,73.0,30.33,East,85,8.3,11.0,99,0.00,,,0.00,VWS V14.01,2013-07-14 05:35:00,
2013-07-14 01:40:00,73.2,72.7,30.30,SSW,212,3.1,11.0,98,0.00,,,0.00,VWS V14.01,2013-07-14 05:40:00,
2013-07-14 01:45:00,73.0,72.5,30.30,South,191,5.8,12.3,98,0.00,,,0.00,VWS V14.01,2013-07-14 05:45:00,
2013-07-14 01:55:00,73.0,72.5,30.30,SSE,161,5.8,12.3,98,0.00,,,0.00,VWS V14.01,2013-07-14 05:55:00,
2013-07-14 02:05:00,73.0,72.5,30.30,SW,215,8.3,8.3,98,0.00,,,0.00,VWS V14.01,2013-07-14 06:05:00,
2013-07-14 02:10:00,72.5,72.5,30.33,South,186,4.5,10.1,100,0.00,,,0.00,VWS V14.01,2013-07-14 06:10:00,
2013-07-14 02:20:00,72.5,72.5,30.33,SSW,198,5.8,10.5,100,0.00,,,0.00,VWS V14.01,2013-07-14 06:20:00,
2013-07-14 02:25:00,72.0,72.0,30.33,SSW,208,5.4,10.5,100,0.00,,,0.00,VWS V14.01,2013-07-14 06:25:00,
2013-07-14 02:35:00,71.8,71.8,30.33,South,189,2.7,7.6,100,0.00,,,0.00,VWS V14.01,2013-07-14 06:35:00,
2013-07-14 02:40:00,71.8,71.8,30.33,SSW,203,2.7,6.3,100,0.00,,,0.00,VWS V14.01,2013-07-14 06:40:00,
2013-07-14 02:50:00,71.6,71.6,30.33,South,189,5.4,5.8,100,0.00,,,0.00,VWS V14.01,2013-07-14 06:50:00,
2013-07-14 03:00:00,71.6,71.6,30.33,South,184,4.0,7.6,100,0.00,,,0.00,VWS V14.01,2013-07-14 07:00:00,
2013-07-14 03:05:00,71.6,71.6,30.33,SSW,198,6.3,7.6,100,0.00,,,0.00,VWS V14.01,2013-07-14 07:05:00,
2013-07-14 03:10:00,71.6,71.6,30.33,SSW,194,5.4,7.6,100,0.00,,,0.00,VWS V14.01,2013-07-14 07:10:00,
2013-07-14 03:20:00,71.2,71.2,30.33,South,184,7.6,8.1,100,0.00,,,0.00,VWS V14.01,2013-07-14 07:20:00,
2013-07-14 03:25:00,71.2,71.2,30.33,SSW,192,4.5,8.1,100,0.00,,,0.00,VWS V14.01,2013-07-14 07:25:00,
2013-07-14 03:35:00,71.1,71.1,30.33,South,185,4.0,6.3,100,0.00,,,0.00,VWS V14.01,2013-07-14 07:35:00,
2013-07-14 03:40:00,71.1,71.1,30.33,SSW,208,2.7,6.3,100,0.00,,,0.00,VWS V14.01,2013-07-14 07:40:00,
2013-07-14 03:50:00,70.9,70.9,30.33,SSW,202,3.1,5.4,100,0.00,,,0.00,VWS V14.01,2013-07-14 07:50:00,
2013-07-14 03:55:00,70.7,70.7,30.33,SSW,202,3.1,4.5,100,0.00,,,0.00,VWS V14.01,2013-07-14 07:55:00,
2013-07-14 04:00:00,70.7,70.7,30.33,SSW,203,4.0,4.9,100,0.00,,,0.00,VWS V14.01,2013-07-14 08:00:00,
2013-07-14 04:05:00,70.7,70.7,30.33,SSW,203,2.2,4.9,100,0.00,,,0.00,VWS V14.01,2013-07-14 08:05:00,
2013-07-14 04:15:00,70.3,70.3,30.33,SSW,203,2.7,4.0,100,0.00,,,0.00,VWS V14.01,2013-07-14 08:15:00,
2013-07-14 04:25:00,70.2,70.2,30.33,SSW,203,2.7,4.0,100,0.00,,,0.00,VWS V14.01,2013-07-14 08:25:00,
2013-07-14 04:35:00,70.0,70.0,30.33,SSW,203,3.1,4.0,100,0.00,,,0.00,VWS V14.01,2013-07-14 08:35:00,
2013-07-14 04:40:00,70.0,70.0,30.33,SSW,203,3.1,3.1,100,0.00,,,0.00,VWS V14.01,2013-07-14 08:40:00,
2013-07-14 04:50:00,69.8,69.8,30.33,SSW,203,3.1,3.6,100,0.00,,,0.00,VWS V14.01,2013-07-14 08:50:00,
2013-07-14 05:00:00,69.6,69.6,30.33,SSW,203,2.7,3.6,100,0.00,,,0.00,VWS V14.01,2013-07-14 09:00:00,
2013-07-14 05:10:00,69.3,69.3,30.33,SSW,203,0.0,3.6,100,0.00,,,0.00,VWS V14.01,2013-07-14 09:10:00,
2013-07-14 05:20:00,68.9,68.9,30.33,SSW,203,2.2,2.7,100,0.00,,,0.00,VWS V14.01,2013-07-14 09:20:00,
2013-07-14 05:25:00,68.7,68.7,30.36,SSW,203,2.7,3.6,100,0.00,,,0.00,VWS V14.01,2013-07-14 09:25:00,
2013-07-14 05:30:00,68.4,68.4,30.36,SSW,203,0.0,3.6,100,0.00,,,0.00,VWS V14.01,2013-07-14 09:30:00,
2013-07-14 05:40:00,68.4,68.4,30.36,SSW,203,2.7,4.0,100,0.00,,,0.00,VWS V14.01,2013-07-14 09:40:00,
2013-07-14 05:45:00,68.4,68.4,30.36,SSW,203,0.0,4.0,100,0.00,,,0.00,VWS V14.01,2013-07-14 09:45:00,
2013-07-14 05:55:00,68.2,68.2,30.36,SSW,203,0.0,3.6,100,0.00,,,0.00,VWS V14.01,2013-07-14 09:55:00,
2013-07-14 06:00:00,68.2,68.2,30.36,SSW,203,0.0,3.6,100,0.00,,,0.00,VWS V14.01,2013-07-14 10:00:00,
2013-07-14 06:10:00,67.8,67.8,30.36,SSW,203,0.0,2.2,100,0.00,,,0.00,VWS V14.01,2013-07-14 10:10:00,
2013-07-14 06:15:00,67.8,67.8,30.36,SSW,203,0.0,2.2,100,0.00,,,0.00,VWS V14.01,2013-07-14 10:15:00,
2013-07-14 06:20:00,67.8,67.8,30.36,SSW,203,0.0,0.0,100,0.00,,,0.00,VWS V14.01,2013-07-14 10:20:00,
2013-07-14 06:25:00,67.8,67.8,30.36,SSW,203,0.0,0.0,100,0.00,,,0.00,VWS V14.01,2013-07-14 10:25:00,
2013-07-14 06:35:00,68.2,68.2,30.36,SSW,203,0.0,2.7,100,0.00,,,0.00,VWS V14.01,2013-07-14 10:35:00,
2013-07-14 06:45:00,68.5,68.5,30.36,SSW,203,0.0,2.2,100,0.00,,,0.00,VWS V14.01,2013-07-14 10:45:00,
2013-07-14 06:55:00,69.1,69.1,30.36,SSW,203,0.0,2.2,100,0.00,,,0.00,VWS V14.01,2013-07-14 10:55:00,
2013-07-14 07:05:00,69.6,69.6,30.36,SSW,203,0.0,3.1,100,0.00,,,0.00,VWS V14.01,2013-07-14 11:05:00,
2013-07-14 07:10:00,70.0,70.0,30.36,SSW,203,0.0,3.1,100,0.00,,,0.00,VWS V14.01,2013-07-14 11:10:00,
2013-07-14 07:20:00,70.9,70.9,30.36,SSW,203,0.0,0.0,100,0.00,,,0.00,VWS V14.01,2013-07-14 11:20:00,
2013-07-14 07:30:00,71.6,71.6,30.36,SSW,203,3.6,3.6,100,0.00,,,0.00,VWS V14.01,2013-07-14 11:30:00,
2013-07-14 07:40:00,74.3,74.3,30.39,SSW,192,5.4,5.4,100,0.00,,,0.00,VWS V14.01,2013-07-14 11:40:00,
2013-07-14 07:45:00,75.2,75.2,30.39,SSW,193,2.7,5.8,100,0.00,,,0.00,VWS V14.01,2013-07-14 11:45:00,
2013-07-14 07:50:00,75.9,75.7,30.39,SSW,192,2.2,5.8,99,0.00,,,0.00,VWS V14.01,2013-07-14 11:50:00,
2013-07-14 07:55:00,76.8,74.7,30.39,South,191,2.7,4.9,93,0.00,,,0.00,VWS V14.01,2013-07-14 11:55:00,
2013-07-14 08:05:00,76.8,72.1,30.39,SSW,193,3.6,7.2,85,0.00,,,0.00,VWS V14.01,2013-07-14 12:05:00,
2013-07-14 08:15:00,77.2,73.1,30.39,South,189,0.0,7.2,87,0.00,,,0.00,VWS V14.01,2013-07-14 12:15:00,
2013-07-14 08:20:00,78.1,72.6,30.39,South,185,3.1,4.9,83,0.00,,,0.00,VWS V14.01,2013-07-14 12:20:00,
2013-07-14 08:30:00,79.2,72.9,30.39,SSW,192,5.4,5.8,81,0.00,,,0.00,VWS V14.01,2013-07-14 12:30:00,
2013-07-14 08:40:00,78.6,72.1,30.39,SSW,205,4.9,8.7,80,0.00,,,0.00,VWS V14.01,2013-07-14 12:40:00,
2013-07-14 08:45:00,78.1,71.2,30.39,SSW,202,5.8,8.7,79,0.00,,,0.00,VWS V14.01,2013-07-14 12:45:00,
2013-07-14 08:55:00,77.4,70.8,30.39,SSW,204,5.8,7.6,80,0.08,,,0.08,VWS V14.01,2013-07-14 12:55:00,
2013-07-14 09:05:00,78.1,71.2,30.39,SSW,200,4.9,11.0,79,0.08,,,0.08,VWS V14.01,2013-07-14 13:05:00,
2013-07-14 09:15:00,79.3,72.4,30.39,SSW,205,5.4,11.0,79,0.08,,,0.08,VWS V14.01,2013-07-14 13:15:00,
2013-07-14 09:25:00,78.8,71.1,30.39,SSW,207,4.9,8.1,77,0.08,,,0.08,VWS V14.01,2013-07-14 13:25:00,
2013-07-14 09:30:00,81.5,72.5,30.39,SSW,211,5.8,8.3,74,0.08,,,0.08,VWS V14.01,2013-07-14 13:30:00,
2013-07-14 09:40:00,80.1,69.5,30.39,SSW,194,4.9,8.3,70,0.08,,,0.08,VWS V14.01,2013-07-14 13:40:00,
2013-07-14 09:50:00,79.0,69.3,30.39,SSW,206,5.4,7.2,72,0.08,,,0.08,VWS V14.01,2013-07-14 13:50:00,
2013-07-14 10:00:00,80.8,69.8,30.36,NW,312,5.8,7.6,69,0.00,,,0.08,VWS V14.01,2013-07-14 14:00:00,
2013-07-14 10:05:00,81.5,70.1,30.36,South,174,4.9,7.6,68,0.00,,,0.08,VWS V14.01,2013-07-14 14:05:00,
2013-07-14 10:15:00,81.1,70.6,30.36,SW,214,3.1,6.7,70,0.00,,,0.08,VWS V14.01,2013-07-14 14:15:00,
2013-07-14 10:25:00,80.2,70.1,30.36,WSW,240,0.0,7.6,71,0.00,,,0.08,VWS V14.01,2013-07-14 14:25:00,
2013-07-14 10:35:00,81.3,68.6,30.36,NW,309,3.6,6.3,65,0.00,,,0.08,VWS V14.01,2013-07-14 14:35:00,
2013-07-14 10:40:00,81.0,69.1,30.36,NW,321,2.7,6.3,67,0.00,,,0.08,VWS V14.01,2013-07-14 14:40:00,
2013-07-14 10:50:00,81.5,70.5,30.36,West,268,2.7,4.9,69,0.00,,,0.08,VWS V14.01,2013-07-14 14:50:00,
2013-07-14 11:00:00,83.5,70.2,30.36,SE,126,3.6,5.8,64,0.00,,,0.08,VWS V14.01,2013-07-14 15:00:00,
2013-07-14 11:05:00,82.4,69.2,30.36,WSW,241,2.7,5.8,64,0.00,,,0.08,VWS V14.01,2013-07-14 15:05:00,
2013-07-14 11:15:00,82.8,69.9,30.36,NW,322,2.7,4.0,65,0.00,,,0.08,VWS V14.01,2013-07-14 15:15:00,
2013-07-14 11:25:00,83.8,68.6,30.36,NNW,335,2.7,4.9,60,0.00,,,0.08,VWS V14.01,2013-07-14 15:25:00,
2013-07-14 11:35:00,83.5,69.7,30.36,NNE,32,0.0,4.9,63,0.00,,,0.08,VWS V14.01,2013-07-14 15:35:00,
2013-07-14 11:45:00,83.7,68.5,30.36,East,99,2.2,3.6,60,0.00,,,0.08,VWS V14.01,2013-07-14 15:45:00,
2013-07-14 11:50:00,83.8,69.1,30.36,SE,126,2.7,5.4,61,0.00,,,0.08,VWS V14.01,2013-07-14 15:50:00,
2013-07-14 12:00:00,83.7,70.3,30.36,SSW,205,3.1,5.4,64,0.00,,,0.08,VWS V14.01,2013-07-14 16:00:00,
2013-07-14 12:10:00,84.0,69.3,30.36,SSW,203,2.7,6.3,61,0.00,,,0.08,VWS V14.01,2013-07-14 16:10:00,
2013-07-14 12:20:00,85.6,69.3,30.36,South,190,2.2,6.3,58,0.00,,,0.08,VWS V14.01,2013-07-14 16:20:00,
2013-07-14 12:25:00,85.6,69.3,30.36,SSE,163,0.0,6.3,58,0.00,,,0.08,VWS V14.01,2013-07-14 16:25:00,
2013-07-14 12:35:00,85.1,67.3,30.36,SSW,203,3.1,5.8,55,0.00,,,0.08,VWS V14.01,2013-07-14 16:35:00,
2013-07-14 12:40:00,85.6,68.8,30.36,WNW,295,3.1,5.4,57,0.00,,,0.08,VWS V14.01,2013-07-14 16:40:00,
2013-07-14 12:45:00,85.1,67.8,30.36,West,279,4.0,5.8,56,0.00,,,0.08,VWS V14.01,2013-07-14 16:45:00,
2013-07-14 12:55:00,85.1,67.8,30.36,WNW,302,3.1,5.8,56,0.00,,,0.08,VWS V14.01,2013-07-14 16:55:00,
2013-07-14 13:00:00,85.1,67.8,30.36,WNW,294,2.7,5.8,56,0.00,,,0.08,VWS V14.01,2013-07-14 17:00:00,
2013-07-14 13:10:00,86.0,69.2,30.36,NW,306,2.2,5.8,57,0.00,,,0.08,VWS V14.01,2013-07-14 17:10:00,
2013-07-14 13:20:00,86.7,68.3,30.36,WSW,249,2.2,4.0,54,0.00,,,0.08,VWS V14.01,2013-07-14 17:20:00,
2013-07-14 13:25:00,88.0,68.9,30.36,NNE,13,3.1,4.9,53,0.00,,,0.08,VWS V14.01,2013-07-14 17:25:00,
2013-07-14 13:30:00,88.3,68.7,30.36,NW,319,3.1,4.9,52,0.00,,,0.08,VWS V14.01,2013-07-14 17:30:00,
2013-07-14 13:35:00,88.0,67.8,30.36,NNW,337,0.0,5.4,51,0.00,,,0.08,VWS V14.01,2013-07-14 17:35:00,
2013-07-14 13:45:00,89.1,69.9,30.36,NW,304,0.0,5.4,53,0.00,,,0.08,VWS V14.01,2013-07-14 17:45:00,
2013-07-14 13:55:00,87.8,67.0,30.36,SSW,199,5.8,8.3,50,0.00,,,0.08,VWS V14.01,2013-07-14 17:55:00,
2013-07-14 14:05:00,86.4,68.5,30.36,SSW,198,2.7,8.1,55,0.00,,,0.08,VWS V14.01,2013-07-14 18:05:00,
2013-07-14 14:10:00,88.3,69.2,30.36,SW,221,3.6,8.1,53,0.00,,,0.08,VWS V14.01,2013-07-14 18:10:00,
2013-07-14 14:15:00,89.8,70.6,30.36,SSW,209,3.6,4.5,53,0.00,,,0.08,VWS V14.01,2013-07-14 18:15:00,
2013-07-14 14:20:00,90.3,69.9,30.36,SW,218,3.1,4.0,51,0.00,,,0.08,VWS V14.01,2013-07-14 18:20:00,
2013-07-14 14:30:00,87.1,68.6,30.36,NW,304,3.6,8.1,54,0.00,,,0.08,VWS V14.01,2013-07-14 18:30:00,
2013-07-14 14:40:00,87.8,69.8,30.33,WNW,302,3.1,6.3,55,0.00,,,0.08,VWS V14.01,2013-07-14 18:40:00,
2013-07-14 14:45:00,87.8,69.8,30.33,NW,311,4.0,5.8,55,0.00,,,0.08,VWS V14.01,2013-07-14 18:45:00,
2013-07-14 14:55:00,89.1,70.4,30.33,WSW,240,2.7,4.0,54,0.00,,,0.08,VWS V14.01,2013-07-14 18:55:00,
2013-07-14 15:00:00,89.6,69.8,30.33,NNW,344,2.2,4.0,52,0.00,,,0.08,VWS V14.01,2013-07-14 19:00:00,
2013-07-14 15:05:00,89.1,69.3,30.33,SSW,195,3.1,6.3,52,0.00,,,0.08,VWS V14.01,2013-07-14 19:05:00,
2013-07-14 15:15:00,89.8,71.1,30.33,South,187,3.1,8.7,54,0.00,,,0.08,VWS V14.01,2013-07-14 19:15:00,
2013-07-14 15:20:00,90.1,69.2,30.33,SSW,201,7.6,8.7,50,0.00,,,0.08,VWS V14.01,2013-07-14 19:20:00,
2013-07-14 15:30:00,90.5,70.1,30.33,SSW,194,5.8,8.7,51,0.00,,,0.08,VWS V14.01,2013-07-14 19:30:00,
2013-07-14 15:40:00,90.5,70.1,30.33,SW,231,2.7,8.3,51,0.00,,,0.08,VWS V14.01,2013-07-14 19:40:00,
2013-07-14 15:45:00,90.5,70.1,30.33,WSW,253,5.8,8.7,51,0.00,,,0.08,VWS V14.01,2013-07-14 19:45:00,
2013-07-14 15:55:00,90.5,70.1,30.33,SW,229,3.6,8.7,51,0.00,,,0.08,VWS V14.01,2013-07-14 19:55:00,
2013-07-14 16:05:00,90.5,70.1,30.33,WSW,248,5.8,8.3,51,0.00,,,0.08,VWS V14.01,2013-07-14 20:05:00,
2013-07-14 16:15:00,90.5,70.1,30.33,WSW,257,6.3,8.3,51,0.00,,,0.08,VWS V14.01,2013-07-14 20:15:00,
2013-07-14 16:25:00,90.5,70.1,30.33,West,281,5.4,8.3,51,0.00,,,0.08,VWS V14.01,2013-07-14 20:25:00,
2013-07-14 16:30:00,91.6,68.1,30.33,SW,232,0.0,7.6,46,0.00,,,0.08,VWS V14.01,2013-07-14 20:30:00,
2013-07-14 16:35:00,91.4,69.2,30.33,West,273,3.6,7.6,48,0.00,,,0.08,VWS V14.01,2013-07-14 20:35:00,
2013-07-14 16:40:00,92.7,69.7,30.33,WSW,242,4.0,7.6,47,0.00,,,0.08,VWS V14.01,2013-07-14 20:40:00,
2013-07-14 16:50:00,91.0,68.8,30.33,WNW,282,6.3,8.1,48,0.00,,,0.08,VWS V14.01,2013-07-14 20:50:00,
2013-07-14 17:00:00,91.0,70.6,30.33,WNW,288,5.4,8.1,51,0.00,,,0.08,VWS V14.01,2013-07-14 21:00:00,
2013-07-14 17:05:00,89.2,68.4,30.33,WNW,285,2.7,6.7,50,0.00,,,0.08,VWS V14.01,2013-07-14 21:05:00,
2013-07-14 17:15:00,91.6,68.7,30.33,WNW,299,5.4,6.3,47,0.00,,,0.08,VWS V14.01,2013-07-14 21:15:00,
2013-07-14 17:20:00,91.2,69.6,30.33,WNW,290,6.3,7.6,49,0.00,,,0.08,VWS V14.01,2013-07-14 21:20:00,
2013-07-14 17:25:00,90.9,68.7,30.33,North,353,0.0,7.6,48,0.00,,,0.08,VWS V14.01,2013-07-14 21:25:00,
2013-07-14 17:30:00,90.9,68.7,30.33,West,260,5.4,7.2,48,0.00,,,0.08,VWS V14.01,2013-07-14 21:30:00,
2013-07-14 17:40:00,91.4,70.9,30.33,WNW,299,3.1,6.3,51,0.00,,,0.08,VWS V14.01,2013-07-14 21:40:00,
2013-07-14 17:50:00,91.6,69.3,30.33,WSW,238,4.0,7.6,48,0.00,,,0.08,VWS V14.01,2013-07-14 21:50:00,
2013-07-14 18:00:00,90.3,69.9,30.30,NW,306,3.6,8.1,51,0.00,,,0.08,VWS V14.01,2013-07-14 22:00:00,
2013-07-14 18:10:00,91.0,70.6,30.30,NW,306,3.6,5.8,51,0.00,,,0.08,VWS V14.01,2013-07-14 22:10:00,
2013-07-14 18:15:00,91.0,70.0,30.30,NNW,333,3.6,4.9,50,0.00,,,0.08,VWS V14.01,2013-07-14 22:15:00,
2013-07-14 18:25:00,90.3,69.3,30.30,WNW,300,2.7,5.4,50,0.00,,,0.08,VWS V14.01,2013-07-14 22:25:00,
2013-07-14 18:35:00,89.6,69.8,30.30,NW,308,2.7,5.4,52,0.00,,,0.08,VWS V14.01,2013-07-14 22:35:00,
2013-07-14 18:45:00,90.7,71.4,30.30,NW,310,2.2,4.0,53,0.00,,,0.08,VWS V14.01,2013-07-14 22:45:00,
2013-07-14 18:50:00,90.5,71.2,30.30,NW,312,2.2,3.6,53,0.00,,,0.08,VWS V14.01,2013-07-14 22:50:00,
2013-07-14 18:55:00,90.3,71.1,30.30,NW,305,4.0,4.9,53,0.00,,,0.08,VWS V14.01,2013-07-14 22:55:00,
2013-07-14 19:00:00,89.4,71.3,30.30,WNW,301,0.0,4.9,55,0.00,,,0.08,VWS V14.01,2013-07-14 23:00:00,
2013-07-14 19:10:00,88.3,69.8,30.30,WNW,299,2.7,4.0,54,0.00,,,0.08,VWS V14.01,2013-07-14 23:10:00,
2013-07-14 19:20:00,87.4,71.5,30.30,WNW,299,0.0,3.6,59,0.00,,,0.08,VWS V14.01,2013-07-14 23:20:00,
2013-07-14 19:25:00,87.3,72.3,30.30,WNW,299,0.0,3.1,61,0.00,,,0.08,VWS V14.01,2013-07-14 23:25:00,
2013-07-14 19:35:00,86.2,73.2,30.30,WNW,299,2.2,2.7,65,0.00,,,0.08,VWS V14.01,2013-07-14 23:35:00,
2013-07-14 19:45:00,86.0,73.5,30.30,WNW,299,0.0,2.2,66,0.00,,,0.08,VWS V14.01,2013-07-14 23:45:00,
2013-07-14 19:50:00,84.7,73.6,30.30,WNW,299,0.0,2.2,69,0.00,,,0.08,VWS V14.01,2013-07-14 23:50:00,
2013-07-14 20:00:00,83.5,73.6,30.30,WNW,299,0.0,0.0,72,0.00,,,0.08,VWS V14.01,2013-07-15 00:00:00,
2013-07-14 20:10:00,83.3,73.9,30.30,WNW,299,0.0,0.0,73,0.00,,,0.08,VWS V14.01,2013-07-15 00:10:00,
2013-07-14 20:20:00,81.9,74.8,30.30,WNW,299,0.0,0.0,79,0.00,,,0.08,VWS V14.01,2013-07-15 00:20:00,
2013-07-14 20:30:00,81.1,75.2,30.30,North,357,2.2,3.6,82,0.00,,,0.08,VWS V14.01,2013-07-15 00:30:00,
2013-07-14 20:35:00,79.7,74.2,30.30,North,0,0.0,3.6,83,0.00,,,0.08,VWS V14.01,2013-07-15 00:35:00,
2013-07-14 20:45:00,79.0,74.5,30.33,North,0,0.0,2.7,86,0.00,,,0.08,VWS V14.01,2013-07-15 00:45:00,
2013-07-14 20:55:00,78.4,75.4,30.33,North,0,0.0,2.7,90,0.00,,,0.08,VWS V14.01,2013-07-15 00:55:00,
2013-07-14 21:05:00,77.5,75.5,30.33,North,0,2.7,3.6,93,0.00,,,0.08,VWS V14.01,2013-07-15 01:05:00,
2013-07-14 21:10:00,77.2,75.4,30.33,North,0,2.7,3.6,94,0.00,,,0.08,VWS V14.01,2013-07-15 01:10:00,
2013-07-14 21:20:00,76.6,76.1,30.33,North,0,2.7,2.7,98,0.00,,,0.08,VWS V14.01,2013-07-15 01:20:00,
2013-07-14 21:30:00,76.6,76.1,30.33,North,0,2.7,3.1,98,0.00,,,0.08,VWS V14.01,2013-07-15 01:30:00,
2013-07-14 21:40:00,76.6,76.1,30.33,North,357,0.0,3.1,98,0.00,,,0.08,VWS V14.01,2013-07-15 01:40:00,
2013-07-14 21:45:00,76.6,76.1,30.33,North,1,2.2,2.7,98,0.00,,,0.08,VWS V14.01,2013-07-15 01:45:00,
2013-07-14 21:55:00,76.6,76.1,30.33,North,357,2.2,3.6,98,0.00,,,0.08,VWS V14.01,2013-07-15 01:55:00,
2013-07-14 22:05:00,76.6,76.1,30.33,North,1,4.0,5.4,98,0.00,,,0.08,VWS V14.01,2013-07-15 02:05:00,
2013-07-14 22:10:00,76.6,76.1,30.33,North,349,0.0,5.4,98,0.00,,,0.08,VWS V14.01,2013-07-15 02:10:00,
2013-07-14 22:20:00,74.5,74.5,30.33,NE,41,0.0,4.0,100,0.00,,,0.08,VWS V14.01,2013-07-15 02:20:00,
2013-07-14 22:30:00,74.5,74.5,30.33,North,2,2.2,5.4,100,0.00,,,0.08,VWS V14.01,2013-07-15 02:30:00,
2013-07-14 22:40:00,73.8,73.8,30.33,North,2,2.7,3.1,100,0.00,,,0.08,VWS V14.01,2013-07-15 02:40:00,
2013-07-14 22:50:00,73.8,73.8,30.33,North,2,0.0,3.6,100,0.00,,,0.08,VWS V14.01,2013-07-15 02:50:00,
2013-07-14 22:55:00,73.0,73.1,30.33,North,2,0.0,3.6,100,0.00,,,0.08,VWS V14.01,2013-07-15 02:55:00,
2013-07-14 23:05:00,73.0,73.1,30.33,North,2,0.0,0.0,100,0.00,,,0.08,VWS V14.01,2013-07-15 03:05:00,
2013-07-14 23:15:00,72.9,72.9,30.33,North,2,0.0,0.0,100,0.00,,,0.08,VWS V14.01,2013-07-15 03:15:00,
2013-07-14 23:25:00,72.5,72.5,30.33,North,2,2.7,3.1,100,0.00,,,0.08,VWS V14.01,2013-07-15 03:25:00,
2013-07-14 23:30:00,72.7,72.7,30.33,North,2,0.0,3.1,100,0.00,,,0.08,VWS V14.01,2013-07-15 03:30:00,
2013-07-14 23:40:00,71.8,71.8,30.33,North,2,0.0,3.1,100,0.00,,,0.08,VWS V14.01,2013-07-15 03:40:00,
2013-07-14 23:45:00,72.0,72.0,30.33,North,2,0.0,2.7,100,0.00,,,0.08,VWS V14.01,2013-07-15 03:45:00,
2013-07-14 23:50:00,71.8,71.8,30.33,North,2,0.0,2.7,100,0.00,,,0.08,VWS V14.01,2013-07-15 03:50:00,